createdAt,value
2023-05-21T02:55:27.078Z,29.80
2023-05-21T02:58:15.967Z,31.30
2023-05-21T03:16:51.129Z,36.10
2023-05-21T03:35:27.723Z,40.77
2023-05-21T03:38:43.572Z,41.10
2023-05-21T03:45:58.694Z,38.67
2023-05-21T03:49:20.786Z,38.10
2023-05-21T03:56:08.982Z,35.23
2023-05-21T05:25:10.948Z,28.43
2023-05-21T05:27:59.704Z,31.43
2023-05-21T05:30:48.344Z,31.30
2023-05-21T05:33:38.351Z,29.00
2023-05-21T05:36:27.456Z,31.03
2023-05-21T05:39:16.366Z,26.93
2023-05-21T05:42:07.823Z,25.57
2023-05-21T05:47:59.886Z,26.50
2023-05-21T05:50:49.421Z,27.20
2023-05-21T05:53:38.070Z,24.67
2023-05-21T05:56:27.981Z,28.30
2023-05-21T05:59:18.085Z,30.60
2023-05-21T06:02:08.195Z,24.33
2023-05-21T06:04:56.939Z,29.30
2023-05-21T06:07:45.751Z,25.43
2023-05-21T06:10:38.217Z,24.70
2023-05-21T06:13:28.890Z,25.33
2023-05-21T06:16:19.174Z,25.83
2023-05-21T06:19:08.060Z,25.47
2023-05-21T06:21:57.638Z,23.60
2023-05-21T06:24:46.346Z,25.70
2023-05-21T06:27:35.855Z,24.13
2023-05-21T06:30:24.675Z,24.33
2023-05-21T06:33:18.331Z,23.40
2023-05-21T06:36:07.739Z,32.60
2023-05-21T06:38:56.492Z,27.07
2023-05-21T06:41:45.745Z,25.00
2023-05-21T06:44:34.463Z,23.20
2023-05-21T06:47:23.242Z,24.60
2023-05-21T06:50:13.261Z,24.33
2023-05-21T06:53:03.142Z,24.27
2023-05-21T06:55:54.097Z,24.70
2023-05-21T06:58:47.689Z,29.30
2023-05-21T07:01:36.806Z,25.80
2023-05-21T07:04:27.012Z,24.10
2023-05-21T07:07:18.679Z,23.03
2023-05-21T07:10:09.571Z,28.50
2023-05-21T07:12:59.225Z,22.00
2023-05-21T07:15:58.661Z,20.23
2023-05-21T07:18:48.318Z,19.90
2023-05-21T07:21:38.843Z,19.80
2023-05-21T07:24:32.915Z,18.10
2023-05-21T07:27:25.655Z,16.60
2023-05-21T07:30:15.853Z,19.00
2023-05-21T07:33:04.295Z,20.83
2023-05-21T07:35:53.046Z,16.47
2023-05-21T07:38:41.453Z,17.57
2023-05-21T07:41:31.299Z,25.00
2023-05-21T07:44:19.638Z,15.53
2023-05-21T07:47:08.124Z,19.20
2023-05-21T07:49:56.861Z,16.03
2023-05-21T07:52:45.436Z,16.33
2023-05-21T07:55:33.930Z,17.20
2023-05-21T07:58:23.954Z,15.83
2023-05-21T08:01:12.723Z,16.13
2023-05-21T08:04:05.901Z,16.57
2023-05-21T08:06:55.023Z,17.13
2023-05-21T08:09:43.931Z,14.90
2023-05-21T08:12:32.321Z,13.20
2023-05-21T08:15:22.658Z,13.60
2023-05-21T08:18:12.091Z,13.77
2023-05-21T08:21:01.159Z,13.00
2023-05-21T08:23:49.964Z,13.67
2023-05-21T08:26:38.326Z,13.50
2023-05-21T08:29:27.447Z,16.10
2023-05-21T08:32:17.656Z,19.30
2023-05-21T08:35:08.738Z,13.77
2023-05-21T08:37:57.191Z,13.20
2023-05-21T08:40:47.939Z,16.00
2023-05-21T08:43:39.083Z,19.07
2023-05-21T08:46:32.080Z,11.70
2023-05-21T08:49:27.990Z,12.63
2023-05-21T08:52:20.002Z,16.57
2023-05-21T08:55:09.893Z,20.93
2023-05-21T08:57:58.810Z,14.50
2023-05-21T09:00:47.381Z,10.47
2023-05-21T09:03:39.574Z,10.67
2023-05-21T09:06:34.051Z,10.80
2023-05-21T09:09:41.131Z,11.30
2023-05-21T09:12:30.502Z,11.47
2023-05-21T09:15:19.452Z,10.67
2023-05-21T09:18:09.440Z,13.70
2023-05-21T09:20:59.618Z,12.50
2023-05-21T09:23:53.915Z,16.57
2023-05-21T09:26:44.516Z,9.47
2023-05-21T09:29:35.670Z,10.27
2023-05-21T09:32:24.732Z,12.30
2023-05-21T09:35:14.858Z,11.90
2023-05-21T09:38:03.669Z,9.87
2023-05-21T09:40:57.199Z,13.27
2023-05-21T09:43:46.724Z,15.60
2023-05-21T09:46:42.417Z,12.27
2023-05-21T09:49:33.494Z,13.00
2023-05-21T09:52:26.494Z,9.63
2023-05-21T09:55:16.345Z,8.93
2023-05-21T09:58:06.608Z,9.53
2023-05-21T10:00:55.950Z,13.50
2023-05-21T10:03:50.580Z,8.70
2023-05-21T10:06:43.827Z,12.70
2023-05-21T10:09:33.017Z,15.20
2023-05-21T10:12:24.052Z,11.90
2023-05-21T10:15:18.026Z,12.93
2023-05-21T10:18:08.518Z,9.00
2023-05-21T10:20:57.939Z,10.83
2023-05-21T10:23:50.624Z,12.13
2023-05-21T10:26:41.167Z,7.63
2023-05-21T10:29:32.074Z,8.23
2023-05-21T10:32:24.554Z,15.13
2023-05-21T10:35:14.374Z,9.30
2023-05-21T10:38:05.273Z,11.03
2023-05-21T10:40:55.178Z,8.67
2023-05-21T10:43:50.915Z,8.33
2023-05-21T10:47:05.668Z,7.80
2023-05-21T10:50:10.076Z,10.67
2023-05-21T10:53:10.849Z,13.03
2023-05-21T10:56:14.800Z,11.43
2023-05-21T10:59:22.472Z,8.33
2023-05-21T11:02:15.302Z,8.80
2023-05-21T11:05:07.786Z,8.40
2023-05-21T11:08:02.849Z,8.10
2023-05-21T11:10:56.114Z,15.70
2023-05-21T11:13:49.540Z,13.53
2023-05-21T11:16:38.902Z,10.17
2023-05-21T11:19:38.467Z,9.63
2023-05-21T11:22:29.047Z,10.27
2023-05-21T11:25:17.768Z,9.40
2023-05-21T11:28:09.699Z,9.03
2023-05-21T11:31:26.099Z,7.77
2023-05-21T11:34:14.944Z,9.33
2023-05-21T11:37:30.570Z,8.10
2023-05-21T11:40:33.414Z,9.87
2023-05-21T11:43:22.419Z,10.63
2023-05-21T11:46:15.756Z,10.00
2023-05-21T11:49:06.440Z,8.90
2023-05-21T11:51:54.811Z,6.87
2023-05-21T11:54:48.751Z,11.83
2023-05-21T11:57:37.233Z,7.63
2023-05-21T12:00:25.589Z,10.00
2023-05-21T12:03:16.812Z,10.43
2023-05-21T12:06:08.633Z,7.50
2023-05-21T12:08:58.561Z,7.17
2023-05-21T12:11:48.904Z,8.00
2023-05-21T12:14:38.061Z,9.00
2023-05-21T12:17:28.527Z,7.67
2023-05-21T12:20:17.305Z,7.03
2023-05-21T12:23:06.318Z,7.37
2023-05-21T12:25:55.466Z,6.60
2023-05-21T12:28:46.237Z,12.30
2023-05-21T12:31:35.133Z,8.03
2023-05-21T12:34:40.694Z,9.33
2023-05-21T12:37:32.733Z,7.27
2023-05-21T12:40:22.753Z,15.57
2023-05-21T12:43:11.393Z,7.90
2023-05-21T12:46:01.260Z,15.40
2023-05-21T12:48:51.640Z,11.07
2023-05-21T12:51:41.027Z,6.97
2023-05-21T12:54:37.704Z,7.27
2023-05-21T12:57:28.367Z,13.00
2023-05-21T13:00:24.600Z,6.77
2023-05-21T13:03:14.817Z,7.23
2023-05-21T13:06:03.801Z,6.93
2023-05-21T13:08:52.428Z,11.27
2023-05-21T13:11:41.150Z,6.40
2023-05-21T13:14:29.897Z,18.30
2023-05-21T13:17:18.695Z,10.40
2023-05-21T13:20:12.742Z,7.93
2023-05-21T13:23:05.660Z,6.73
2023-05-21T13:25:55.214Z,7.33
2023-05-21T13:28:43.569Z,7.37
2023-05-21T13:31:32.631Z,7.73
2023-05-21T13:34:23.867Z,7.10
2023-05-21T13:37:13.792Z,8.40
2023-05-21T13:40:02.723Z,8.83
2023-05-21T13:42:51.504Z,16.30
2023-05-21T13:45:40.024Z,8.60
2023-05-21T13:48:28.925Z,7.43
2023-05-21T13:51:30.862Z,6.77
2023-05-21T13:54:27.699Z,9.80
2023-05-21T13:57:16.400Z,6.90
2023-05-21T14:00:06.108Z,29.80
2023-05-21T14:02:55.794Z,8.10
2023-05-21T14:05:46.219Z,9.30
2023-05-21T14:08:35.052Z,9.20
2023-05-21T14:11:25.249Z,10.57
2023-05-21T14:14:18.967Z,6.57
2023-05-21T14:17:08.483Z,8.10
2023-05-21T14:19:57.444Z,7.13
2023-05-21T14:22:46.425Z,9.10
2023-05-21T14:25:35.044Z,9.40
2023-05-21T14:28:25.231Z,8.33
2023-05-21T14:31:14.067Z,6.47
2023-05-21T14:34:03.331Z,6.93
2023-05-21T14:36:52.032Z,13.77
2023-05-21T14:39:40.554Z,7.07
2023-05-21T14:42:28.871Z,28.43
2023-05-21T14:45:20.216Z,9.47
2023-05-21T14:48:09.553Z,8.03
2023-05-21T14:50:58.046Z,12.33
2023-05-21T14:53:46.534Z,7.13
2023-05-21T14:56:35.028Z,18.70
2023-05-21T14:59:23.650Z,8.13
2023-05-21T15:02:14.813Z,11.63
2023-05-21T15:05:03.500Z,6.20
2023-05-21T15:07:51.967Z,16.63
2023-05-21T15:10:40.723Z,9.70
2023-05-21T15:13:30.047Z,6.77
2023-05-21T15:16:19.804Z,11.50
2023-05-21T15:19:09.896Z,15.93
2023-05-21T15:21:58.844Z,7.97
2023-05-21T15:24:47.388Z,14.43
2023-05-21T15:27:36.138Z,6.67
2023-05-21T15:30:27.420Z,7.67
2023-05-21T15:33:15.778Z,10.37
2023-05-21T15:36:06.092Z,8.57
2023-05-21T15:38:54.848Z,8.50
2023-05-21T15:41:43.593Z,10.60
2023-05-21T15:44:32.022Z,8.67
2023-05-21T15:47:22.934Z,11.03
2023-05-21T15:50:12.949Z,7.33
2023-05-21T15:53:02.936Z,7.00
2023-05-21T15:55:51.476Z,5.43
2023-05-21T15:58:40.160Z,12.13
2023-05-21T16:01:29.425Z,5.47
2023-05-21T16:04:20.954Z,7.93
2023-05-21T16:07:09.705Z,14.00
2023-05-21T16:09:59.627Z,16.00
2023-05-21T16:12:48.282Z,5.63
2023-05-21T16:15:36.940Z,7.33
2023-05-21T16:18:25.498Z,5.73
2023-05-21T16:21:14.156Z,9.53
2023-05-21T16:24:03.456Z,9.30
2023-05-21T16:26:54.603Z,7.77
2023-05-21T16:29:44.696Z,7.27
2023-05-21T16:32:35.248Z,6.83
2023-05-21T16:35:23.662Z,5.93
2023-05-21T16:38:12.429Z,8.87
2023-05-21T16:41:00.813Z,5.93
2023-05-21T16:43:54.525Z,7.30
2023-05-21T16:46:43.151Z,7.60
2023-05-21T16:49:31.667Z,5.97
2023-05-21T16:52:19.993Z,5.47
2023-05-21T16:55:09.265Z,6.60
2023-05-21T16:58:00.273Z,6.33
2023-05-21T17:00:50.276Z,5.50
2023-05-21T17:03:41.022Z,8.67
2023-05-21T17:06:31.893Z,7.80
2023-05-21T17:09:20.506Z,7.43
2023-05-21T17:12:12.665Z,8.43
2023-05-21T17:15:01.137Z,10.70
2023-05-21T17:17:51.660Z,12.13
2023-05-21T17:21:03.041Z,7.93
2023-05-21T17:23:51.586Z,8.27
2023-05-21T17:26:40.676Z,5.47
2023-05-21T17:29:29.761Z,7.87
2023-05-21T17:32:18.448Z,5.80
2023-05-21T17:35:10.039Z,14.77
2023-05-21T17:37:58.925Z,7.03
2023-05-21T17:40:49.071Z,11.33
2023-05-21T17:43:37.662Z,6.70
2023-05-21T17:46:26.377Z,8.27
2023-05-21T17:49:15.228Z,11.03
2023-05-21T17:52:08.330Z,15.83
2023-05-21T17:54:57.068Z,15.00
2023-05-21T17:57:47.039Z,11.13
2023-05-21T18:00:35.642Z,9.80
2023-05-21T18:03:36.679Z,6.83
2023-05-21T18:06:41.516Z,5.73
2023-05-21T18:09:31.609Z,11.33
2023-05-21T18:12:21.580Z,16.03
2023-05-21T18:15:11.772Z,15.60
2023-05-21T18:18:02.065Z,7.97
2023-05-21T18:21:01.751Z,6.40
2023-05-21T18:24:07.981Z,8.50
2023-05-21T18:26:58.381Z,12.10
2023-05-21T18:29:49.233Z,6.00
2023-05-21T18:32:39.845Z,7.37
2023-05-21T18:46:38.725Z,10.50
2023-05-21T18:49:33.917Z,10.93
